sensor_id;sensor_type;location;lat;lon;timestamp;temperature;humidity
67379;DHT22;54262;44.642;-0.974;2023-09-12T00:01:46;24.00;99.90
67379;DHT22;54262;44.642;-0.974;2023-09-12T00:04:12;24.00;99.90
67379;DHT22;54262;44.642;-0.974;2023-09-12T00:06:37;24.00;99.90
67379;DHT22;54262;44.642;-0.974;2023-09-12T00:09:03;24.00;99.90
67379;DHT22;54262;44.642;-0.974;2023-09-12T00:11:31;23.90;99.90
67379;DHT22;54262;44.642;-0.974;2023-09-12T00:13:58;23.90;99.90
67379;DHT22;54262;44.642;-0.974;2023-09-12T00:16:24;23.90;99.90
67379;DHT22;54262;44.642;-0.974;2023-09-12T00:18:50;23.90;99.90
67379;DHT22;54262;44.642;-0.974;2023-09-12T00:21:16;23.90;99.90
67379;DHT22;54262;44.642;-0.974;2023-09-12T00:23:41;23.80;99.90
67379;DHT22;54262;44.642;-0.974;2023-09-12T00:26:07;23.80;99.90
67379;DHT22;54262;44.642;-0.974;2023-09-12T00:28:33;23.80;99.90
67379;DHT22;54262;44.642;-0.974;2023-09-12T00:30:59;23.80;99.90
67379;DHT22;54262;44.642;-0.974;2023-09-12T00:33:27;23.80;99.90
67379;DHT22;54262;44.642;-0.974;2023-09-12T00:35:53;23.80;99.90
67379;DHT22;54262;44.642;-0.974;2023-09-12T00:38:19;23.70;99.90
67379;DHT22;54262;44.642;-0.974;2023-09-12T00:40:47;23.70;99.90
67379;DHT22;54262;44.642;-0.974;2023-09-12T00:43:13;23.70;99.90
67379;DHT22;54262;44.642;-0.974;2023-09-12T00:45:39;23.70;99.90
67379;DHT22;54262;44.642;-0.974;2023-09-12T00:48:05;23.60;99.90
67379;DHT22;54262;44.642;-0.974;2023-09-12T00:50:35;23.60;99.90
67379;DHT22;54262;44.642;-0.974;2023-09-12T00:53:02;23.60;99.90
67379;DHT22;54262;44.642;-0.974;2023-09-12T00:55:32;23.60;99.90
67379;DHT22;54262;44.642;-0.974;2023-09-12T00:57:58;23.60;99.90
67379;DHT22;54262;44.642;-0.974;2023-09-12T01:00:27;23.60;99.90
67379;DHT22;54262;44.642;-0.974;2023-09-12T01:02:55;23.60;99.90
67379;DHT22;54262;44.642;-0.974;2023-09-12T01:05:22;23.50;99.90
67379;DHT22;54262;44.642;-0.974;2023-09-12T01:07:51;23.50;99.90
67379;DHT22;54262;44.642;-0.974;2023-09-12T01:10:17;23.50;99.90
67379;DHT22;54262;44.642;-0.974;2023-09-12T01:12:42;23.50;99.90
67379;DHT22;54262;44.642;-0.974;2023-09-12T01:15:09;23.50;99.90
67379;DHT22;54262;44.642;-0.974;2023-09-12T01:17:43;23.50;99.90
67379;DHT22;54262;44.642;-0.974;2023-09-12T01:20:16;23.40;99.90
67379;DHT22;54262;44.642;-0.974;2023-09-12T01:28:40;23.40;99.90
67379;DHT22;54262;44.642;-0.974;2023-09-12T01:31:08;23.30;99.90
67379;DHT22;54262;44.642;-0.974;2023-09-12T01:33:37;23.30;99.90
67379;DHT22;54262;44.642;-0.974;2023-09-12T01:36:05;23.30;99.90
67379;DHT22;54262;44.642;-0.974;2023-09-12T01:38:31;23.30;99.90
67379;DHT22;54262;44.642;-0.974;2023-09-12T01:40:56;23.30;99.90
67379;DHT22;54262;44.642;-0.974;2023-09-12T01:43:24;23.30;99.90
67379;DHT22;54262;44.642;-0.974;2023-09-12T01:45:53;23.20;99.90
67379;DHT22;54262;44.642;-0.974;2023-09-12T01:48:24;23.20;99.90
67379;DHT22;54262;44.642;-0.974;2023-09-12T01:50:52;23.30;99.90
67379;DHT22;54262;44.642;-0.974;2023-09-12T01:53:18;23.20;99.90
67379;DHT22;54262;44.642;-0.974;2023-09-12T01:55:45;23.20;99.90
67379;DHT22;54262;44.642;-0.974;2023-09-12T01:58:11;23.20;99.90
67379;DHT22;54262;44.642;-0.974;2023-09-12T02:00:40;23.20;99.90
67379;DHT22;54262;44.642;-0.974;2023-09-12T02:03:06;23.20;99.90
67379;DHT22;54262;44.642;-0.974;2023-09-12T02:05:32;23.10;99.90
67379;DHT22;54262;44.642;-0.974;2023-09-12T02:07:58;23.10;99.90
67379;DHT22;54262;44.642;-0.974;2023-09-12T02:10:27;23.10;99.90
67379;DHT22;54262;44.642;-0.974;2023-09-12T02:12:53;23.10;99.90
67379;DHT22;54262;44.642;-0.974;2023-09-12T02:15:18;23.10;99.90
67379;DHT22;54262;44.642;-0.974;2023-09-12T02:17:44;23.10;99.90
67379;DHT22;54262;44.642;-0.974;2023-09-12T02:20:10;23.00;99.90
67379;DHT22;54262;44.642;-0.974;2023-09-12T02:22:37;23.10;99.90
67379;DHT22;54262;44.642;-0.974;2023-09-12T02:25:05;23.10;99.90
67379;DHT22;54262;44.642;-0.974;2023-09-12T02:27:31;23.00;99.90
67379;DHT22;54262;44.642;-0.974;2023-09-12T02:29:56;23.00;99.90
67379;DHT22;54262;44.642;-0.974;2023-09-12T02:32:22;23.00;99.90
67379;DHT22;54262;44.642;-0.974;2023-09-12T02:34:55;23.00;99.90
67379;DHT22;54262;44.642;-0.974;2023-09-12T02:37:28;23.00;99.90
67379;DHT22;54262;44.642;-0.974;2023-09-12T02:39:54;23.00;99.90
67379;DHT22;54262;44.642;-0.974;2023-09-12T02:42:19;22.90;99.90
67379;DHT22;54262;44.642;-0.974;2023-09-12T02:44:45;22.90;99.90
67379;DHT22;54262;44.642;-0.974;2023-09-12T02:47:11;22.90;99.90
67379;DHT22;54262;44.642;-0.974;2023-09-12T02:49:36;22.90;99.90
67379;DHT22;54262;44.642;-0.974;2023-09-12T02:52:02;22.90;99.90
67379;DHT22;54262;44.642;-0.974;2023-09-12T02:54:28;22.90;99.90
67379;DHT22;54262;44.642;-0.974;2023-09-12T02:56:53;22.90;99.90
67379;DHT22;54262;44.642;-0.974;2023-09-12T02:59:19;22.90;99.90
67379;DHT22;54262;44.642;-0.974;2023-09-12T03:01:47;22.90;99.90
67379;DHT22;54262;44.642;-0.974;2023-09-12T03:04:13;22.90;99.90
67379;DHT22;54262;44.642;-0.974;2023-09-12T03:06:38;22.80;99.90
67379;DHT22;54262;44.642;-0.974;2023-09-12T03:09:04;22.80;99.90
67379;DHT22;54262;44.642;-0.974;2023-09-12T03:11:30;22.80;99.90
67379;DHT22;54262;44.642;-0.974;2023-09-12T03:13:55;22.80;99.90
67379;DHT22;54262;44.642;-0.974;2023-09-12T03:16:21;22.80;99.90
67379;DHT22;54262;44.642;-0.974;2023-09-12T03:18:48;22.80;99.90
67379;DHT22;54262;44.642;-0.974;2023-09-12T03:21:14;22.80;99.90
67379;DHT22;54262;44.642;-0.974;2023-09-12T03:23:42;22.80;99.90
67379;DHT22;54262;44.642;-0.974;2023-09-12T03:26:08;22.80;99.90
67379;DHT22;54262;44.642;-0.974;2023-09-12T03:28:34;22.70;99.90
67379;DHT22;54262;44.642;-0.974;2023-09-12T03:31:06;22.70;99.90
67379;DHT22;54262;44.642;-0.974;2023-09-12T03:33:32;22.70;99.90
67379;DHT22;54262;44.642;-0.974;2023-09-12T03:36:00;22.70;99.90
67379;DHT22;54262;44.642;-0.974;2023-09-12T03:38:26;22.70;99.90
67379;DHT22;54262;44.642;-0.974;2023-09-12T03:40:52;22.60;99.90
67379;DHT22;54262;44.642;-0.974;2023-09-12T03:43:17;22.60;99.90
67379;DHT22;54262;44.642;-0.974;2023-09-12T03:45:43;22.60;99.90
67379;DHT22;54262;44.642;-0.974;2023-09-12T03:48:09;22.60;99.90
67379;DHT22;54262;44.642;-0.974;2023-09-12T03:50:34;22.60;99.90
67379;DHT22;54262;44.642;-0.974;2023-09-12T03:53:03;22.60;99.90
67379;DHT22;54262;44.642;-0.974;2023-09-12T03:55:28;22.60;99.90
67379;DHT22;54262;44.642;-0.974;2023-09-12T03:57:54;22.60;99.90
67379;DHT22;54262;44.642;-0.974;2023-09-12T04:00:20;22.60;99.90
67379;DHT22;54262;44.642;-0.974;2023-09-12T04:02:48;22.50;99.90
67379;DHT22;54262;44.642;-0.974;2023-09-12T04:05:14;22.50;99.90
67379;DHT22;54262;44.642;-0.974;2023-09-12T04:07:40;22.50;99.90
67379;DHT22;54262;44.642;-0.974;2023-09-12T04:10:06;22.50;99.90
67379;DHT22;54262;44.642;-0.974;2023-09-12T04:12:31;22.50;99.90
67379;DHT22;54262;44.642;-0.974;2023-09-12T04:14:57;22.50;99.90
67379;DHT22;54262;44.642;-0.974;2023-09-12T04:17:22;22.40;99.90
67379;DHT22;54262;44.642;-0.974;2023-09-12T04:19:49;22.40;99.90
67379;DHT22;54262;44.642;-0.974;2023-09-12T04:22:14;22.40;99.90
67379;DHT22;54262;44.642;-0.974;2023-09-12T04:24:40;22.40;99.90
67379;DHT22;54262;44.642;-0.974;2023-09-12T04:27:06;22.40;99.90
67379;DHT22;54262;44.642;-0.974;2023-09-12T04:29:35;22.40;99.90
67379;DHT22;54262;44.642;-0.974;2023-09-12T04:32:05;22.40;99.90
67379;DHT22;54262;44.642;-0.974;2023-09-12T04:34:31;22.40;99.90
67379;DHT22;54262;44.642;-0.974;2023-09-12T04:37:04;22.40;99.90
67379;DHT22;54262;44.642;-0.974;2023-09-12T04:39:31;22.40;99.90
67379;DHT22;54262;44.642;-0.974;2023-09-12T04:41:57;22.30;99.90
67379;DHT22;54262;44.642;-0.974;2023-09-12T04:44:22;22.30;99.90
67379;DHT22;54262;44.642;-0.974;2023-09-12T04:46:48;22.30;99.90
67379;DHT22;54262;44.642;-0.974;2023-09-12T04:49:14;22.30;99.90
67379;DHT22;54262;44.642;-0.974;2023-09-12T04:51:39;22.30;99.90
67379;DHT22;54262;44.642;-0.974;2023-09-12T04:54:05;22.20;99.90
67379;DHT22;54262;44.642;-0.974;2023-09-12T04:56:31;22.30;99.90
67379;DHT22;54262;44.642;-0.974;2023-09-12T04:58:56;22.20;99.90
67379;DHT22;54262;44.642;-0.974;2023-09-12T05:01:22;22.20;99.90
67379;DHT22;54262;44.642;-0.974;2023-09-12T05:03:50;22.20;99.90
67379;DHT22;54262;44.642;-0.974;2023-09-12T05:06:16;22.20;99.90
67379;DHT22;54262;44.642;-0.974;2023-09-12T05:08:41;22.20;99.90
67379;DHT22;54262;44.642;-0.974;2023-09-12T05:11:08;22.20;99.90
67379;DHT22;54262;44.642;-0.974;2023-09-12T05:13:34;22.20;99.90
67379;DHT22;54262;44.642;-0.974;2023-09-12T05:15:59;22.20;99.90
67379;DHT22;54262;44.642;-0.974;2023-09-12T05:18:25;22.20;99.90
67379;DHT22;54262;44.642;-0.974;2023-09-12T05:20:51;22.20;99.90
67379;DHT22;54262;44.642;-0.974;2023-09-12T05:23:16;22.10;99.90
67379;DHT22;54262;44.642;-0.974;2023-09-12T05:25:42;22.10;99.90
67379;DHT22;54262;44.642;-0.974;2023-09-12T05:28:08;22.10;99.90
67379;DHT22;54262;44.642;-0.974;2023-09-12T05:30:33;22.10;99.90
67379;DHT22;54262;44.642;-0.974;2023-09-12T05:32:59;22.10;99.90
67379;DHT22;54262;44.642;-0.974;2023-09-12T05:35:25;22.10;99.90
67379;DHT22;54262;44.642;-0.974;2023-09-12T05:37:53;22.10;99.90
67379;DHT22;54262;44.642;-0.974;2023-09-12T05:40:19;22.10;99.90
67379;DHT22;54262;44.642;-0.974;2023-09-12T05:42:44;22.10;99.90
67379;DHT22;54262;44.642;-0.974;2023-09-12T05:45:10;22.10;99.90
67379;DHT22;54262;44.642;-0.974;2023-09-12T05:47:36;22.10;99.90
67379;DHT22;54262;44.642;-0.974;2023-09-12T05:50:02;22.00;99.90
67379;DHT22;54262;44.642;-0.974;2023-09-12T05:52:31;22.00;99.90
67379;DHT22;54262;44.642;-0.974;2023-09-12T05:54:56;22.00;99.90
67379;DHT22;54262;44.642;-0.974;2023-09-12T05:57:22;22.00;99.90
67379;DHT22;54262;44.642;-0.974;2023-09-12T05:59:49;22.00;99.90
67379;DHT22;54262;44.642;-0.974;2023-09-12T06:02:14;22.00;99.90
67379;DHT22;54262;44.642;-0.974;2023-09-12T06:04:43;22.00;99.90
67379;DHT22;54262;44.642;-0.974;2023-09-12T06:07:08;22.00;99.90
67379;DHT22;54262;44.642;-0.974;2023-09-12T06:09:34;21.90;99.90
67379;DHT22;54262;44.642;-0.974;2023-09-12T06:12:00;22.00;99.90
67379;DHT22;54262;44.642;-0.974;2023-09-12T06:14:26;21.90;99.90
67379;DHT22;54262;44.642;-0.974;2023-09-12T06:16:51;21.90;99.90
67379;DHT22;54262;44.642;-0.974;2023-09-12T06:19:17;21.90;99.90
67379;DHT22;54262;44.642;-0.974;2023-09-12T06:21:45;22.00;99.90
67379;DHT22;54262;44.642;-0.974;2023-09-12T06:24:16;22.00;99.90
67379;DHT22;54262;44.642;-0.974;2023-09-12T06:26:42;22.00;99.90
67379;DHT22;54262;44.642;-0.974;2023-09-12T06:29:08;22.10;99.90
67379;DHT22;54262;44.642;-0.974;2023-09-12T06:31:33;22.20;99.90
67379;DHT22;54262;44.642;-0.974;2023-09-12T06:33:59;22.20;99.90
67379;DHT22;54262;44.642;-0.974;2023-09-12T06:36:26;22.30;99.90
67379;DHT22;54262;44.642;-0.974;2023-09-12T06:38:55;22.40;99.90
67379;DHT22;54262;44.642;-0.974;2023-09-12T06:41:21;22.50;99.90
67379;DHT22;54262;44.642;-0.974;2023-09-12T06:43:47;22.50;99.90
67379;DHT22;54262;44.642;-0.974;2023-09-12T06:46:13;22.60;99.90
67379;DHT22;54262;44.642;-0.974;2023-09-12T06:48:39;22.50;99.90
67379;DHT22;54262;44.642;-0.974;2023-09-12T06:51:05;22.50;99.90
67379;DHT22;54262;44.642;-0.974;2023-09-12T06:53:32;22.60;99.90
67379;DHT22;54262;44.642;-0.974;2023-09-12T06:55:57;22.60;99.90
67379;DHT22;54262;44.642;-0.974;2023-09-12T06:58:24;22.70;99.90
67379;DHT22;54262;44.642;-0.974;2023-09-12T07:00:50;22.70;99.90
67379;DHT22;54262;44.642;-0.974;2023-09-12T07:03:16;22.70;99.90
67379;DHT22;54262;44.642;-0.974;2023-09-12T07:05:44;22.60;99.90
67379;DHT22;54262;44.642;-0.974;2023-09-12T07:08:10;22.60;99.90
67379;DHT22;54262;44.642;-0.974;2023-09-12T07:10:36;22.50;99.90
67379;DHT22;54262;44.642;-0.974;2023-09-12T07:13:02;22.50;99.90
67379;DHT22;54262;44.642;-0.974;2023-09-12T07:15:28;22.60;99.90
67379;DHT22;54262;44.642;-0.974;2023-09-12T07:17:53;22.70;99.90
67379;DHT22;54262;44.642;-0.974;2023-09-12T07:20:19;22.70;99.90
67379;DHT22;54262;44.642;-0.974;2023-09-12T07:22:46;22.80;99.90
67379;DHT22;54262;44.642;-0.974;2023-09-12T07:25:13;22.90;99.90
67379;DHT22;54262;44.642;-0.974;2023-09-12T07:27:39;23.00;99.90
67379;DHT22;54262;44.642;-0.974;2023-09-12T07:30:06;23.10;99.90
67379;DHT22;54262;44.642;-0.974;2023-09-12T07:32:31;23.10;99.90
67379;DHT22;54262;44.642;-0.974;2023-09-12T07:34:57;23.20;99.90
67379;DHT22;54262;44.642;-0.974;2023-09-12T07:37:23;23.20;99.90
67379;DHT22;54262;44.642;-0.974;2023-09-12T07:39:50;23.10;99.90
67379;DHT22;54262;44.642;-0.974;2023-09-12T07:42:20;23.10;99.90
67379;DHT22;54262;44.642;-0.974;2023-09-12T07:44:45;23.10;99.90
67379;DHT22;54262;44.642;-0.974;2023-09-12T07:47:11;23.10;99.90
67379;DHT22;54262;44.642;-0.974;2023-09-12T07:49:37;23.10;99.90
67379;DHT22;54262;44.642;-0.974;2023-09-12T07:52:03;23.10;99.90
67379;DHT22;54262;44.642;-0.974;2023-09-12T07:54:31;23.10;99.90
67379;DHT22;54262;44.642;-0.974;2023-09-12T07:56:57;23.00;99.90
67379;DHT22;54262;44.642;-0.974;2023-09-12T07:59:24;23.10;99.90
67379;DHT22;54262;44.642;-0.974;2023-09-12T08:01:50;23.10;99.90
67379;DHT22;54262;44.642;-0.974;2023-09-12T08:04:16;23.00;99.90
67379;DHT22;54262;44.642;-0.974;2023-09-12T08:06:44;23.00;99.90
67379;DHT22;54262;44.642;-0.974;2023-09-12T08:09:10;23.10;99.90
67379;DHT22;54262;44.642;-0.974;2023-09-12T08:11:36;23.10;99.90
67379;DHT22;54262;44.642;-0.974;2023-09-12T08:14:02;23.30;99.90
67379;DHT22;54262;44.642;-0.974;2023-09-12T08:16:27;23.40;99.90
67379;DHT22;54262;44.642;-0.974;2023-09-12T08:18:53;23.60;99.90
67379;DHT22;54262;44.642;-0.974;2023-09-12T08:21:18;23.60;99.90
67379;DHT22;54262;44.642;-0.974;2023-09-12T08:23:47;23.40;99.90
67379;DHT22;54262;44.642;-0.974;2023-09-12T08:26:12;23.40;99.90
67379;DHT22;54262;44.642;-0.974;2023-09-12T08:28:38;23.40;99.90
67379;DHT22;54262;44.642;-0.974;2023-09-12T08:31:04;23.40;99.90
67379;DHT22;54262;44.642;-0.974;2023-09-12T08:33:29;23.50;99.90
67379;DHT22;54262;44.642;-0.974;2023-09-12T08:35:55;23.50;99.90
67379;DHT22;54262;44.642;-0.974;2023-09-12T08:38:21;23.50;99.90
67379;DHT22;54262;44.642;-0.974;2023-09-12T08:40:49;23.40;99.90
67379;DHT22;54262;44.642;-0.974;2023-09-12T08:43:20;23.30;99.90
67379;DHT22;54262;44.642;-0.974;2023-09-12T08:45:46;23.20;99.90
67379;DHT22;54262;44.642;-0.974;2023-09-12T08:48:12;23.10;99.90
67379;DHT22;54262;44.642;-0.974;2023-09-12T08:50:39;23.10;99.90
67379;DHT22;54262;44.642;-0.974;2023-09-12T08:53:04;23.10;99.90
67379;DHT22;54262;44.642;-0.974;2023-09-12T08:55:31;22.90;99.90
67379;DHT22;54262;44.642;-0.974;2023-09-12T08:58:04;22.90;99.90
67379;DHT22;54262;44.642;-0.974;2023-09-12T09:00:30;22.80;99.90
67379;DHT22;54262;44.642;-0.974;2023-09-12T09:02:57;22.80;99.90
67379;DHT22;54262;44.642;-0.974;2023-09-12T09:05:26;22.90;99.90
67379;DHT22;54262;44.642;-0.974;2023-09-12T09:07:55;22.90;99.90
67379;DHT22;54262;44.642;-0.974;2023-09-12T09:10:23;22.90;99.90
67379;DHT22;54262;44.642;-0.974;2023-09-12T09:12:48;22.80;99.90
67379;DHT22;54262;44.642;-0.974;2023-09-12T09:15:30;22.80;99.90
67379;DHT22;54262;44.642;-0.974;2023-09-12T09:17:57;22.80;99.90
67379;DHT22;54262;44.642;-0.974;2023-09-12T09:20:30;22.70;99.90
67379;DHT22;54262;44.642;-0.974;2023-09-12T09:23:06;22.70;99.90
67379;DHT22;54262;44.642;-0.974;2023-09-12T09:25:45;22.70;99.90
67379;DHT22;54262;44.642;-0.974;2023-09-12T09:28:20;22.60;99.90
67379;DHT22;54262;44.642;-0.974;2023-09-12T09:30:48;22.70;99.90
67379;DHT22;54262;44.642;-0.974;2023-09-12T09:33:14;22.80;99.90
67379;DHT22;54262;44.642;-0.974;2023-09-12T09:35:46;22.90;99.90
67379;DHT22;54262;44.642;-0.974;2023-09-12T09:38:12;23.00;99.90
67379;DHT22;54262;44.642;-0.974;2023-09-12T09:40:43;23.00;99.90
67379;DHT22;54262;44.642;-0.974;2023-09-12T09:43:11;23.10;99.90
67379;DHT22;54262;44.642;-0.974;2023-09-12T09:45:45;23.10;99.90
67379;DHT22;54262;44.642;-0.974;2023-09-12T09:48:18;23.10;99.90
67379;DHT22;54262;44.642;-0.974;2023-09-12T09:50:43;23.20;99.90
67379;DHT22;54262;44.642;-0.974;2023-09-12T09:53:09;23.20;99.90
67379;DHT22;54262;44.642;-0.974;2023-09-12T09:55:36;23.20;99.90
67379;DHT22;54262;44.642;-0.974;2023-09-12T09:58:05;23.30;99.90
67379;DHT22;54262;44.642;-0.974;2023-09-12T10:00:33;23.40;99.90
67379;DHT22;54262;44.642;-0.974;2023-09-12T10:03:00;23.40;99.90
67379;DHT22;54262;44.642;-0.974;2023-09-12T10:05:29;23.50;99.90
67379;DHT22;54262;44.642;-0.974;2023-09-12T10:07:59;23.60;99.90
67379;DHT22;54262;44.642;-0.974;2023-09-12T10:10:26;23.70;99.90
67379;DHT22;54262;44.642;-0.974;2023-09-12T10:12:57;23.80;99.90
67379;DHT22;54262;44.642;-0.974;2023-09-12T10:15:28;24.00;99.90
67379;DHT22;54262;44.642;-0.974;2023-09-12T10:17:59;24.20;99.90
67379;DHT22;54262;44.642;-0.974;2023-09-12T10:20:37;24.50;99.90
67379;DHT22;54262;44.642;-0.974;2023-09-12T10:23:14;24.80;99.90
67379;DHT22;54262;44.642;-0.974;2023-09-12T10:25:43;25.00;99.90
67379;DHT22;54262;44.642;-0.974;2023-09-12T10:28:09;25.10;99.90
67379;DHT22;54262;44.642;-0.974;2023-09-12T10:30:36;25.00;99.90
67379;DHT22;54262;44.642;-0.974;2023-09-12T10:33:02;25.00;99.90
67379;DHT22;54262;44.642;-0.974;2023-09-12T10:35:31;25.20;99.90
67379;DHT22;54262;44.642;-0.974;2023-09-12T10:38:02;25.30;99.90
67379;DHT22;54262;44.642;-0.974;2023-09-12T10:40:32;25.20;99.90
67379;DHT22;54262;44.642;-0.974;2023-09-12T10:43:00;25.00;99.90
67379;DHT22;54262;44.642;-0.974;2023-09-12T10:45:31;25.00;99.90
67379;DHT22;54262;44.642;-0.974;2023-09-12T10:47:58;25.00;99.90
67379;DHT22;54262;44.642;-0.974;2023-09-12T10:50:24;25.10;99.90
67379;DHT22;54262;44.642;-0.974;2023-09-12T10:52:50;25.10;99.90
67379;DHT22;54262;44.642;-0.974;2023-09-12T10:55:17;25.20;99.90
67379;DHT22;54262;44.642;-0.974;2023-09-12T10:58:09;25.30;99.90
67379;DHT22;54262;44.642;-0.974;2023-09-12T11:00:36;25.40;99.90
67379;DHT22;54262;44.642;-0.974;2023-09-12T11:05:55;25.50;99.90
67379;DHT22;54262;44.642;-0.974;2023-09-12T11:08:23;25.50;99.90
67379;DHT22;54262;44.642;-0.974;2023-09-12T11:11:18;25.60;99.90
67379;DHT22;54262;44.642;-0.974;2023-09-12T11:13:47;25.50;99.90
67379;DHT22;54262;44.642;-0.974;2023-09-12T11:16:28;25.50;99.90
67379;DHT22;54262;44.642;-0.974;2023-09-12T11:19:18;25.40;99.90
67379;DHT22;54262;44.642;-0.974;2023-09-12T11:21:52;25.40;99.90
67379;DHT22;54262;44.642;-0.974;2023-09-12T11:24:19;25.30;99.90
67379;DHT22;54262;44.642;-0.974;2023-09-12T11:26:56;25.30;99.90
67379;DHT22;54262;44.642;-0.974;2023-09-12T11:29:36;25.30;99.90
67379;DHT22;54262;44.642;-0.974;2023-09-12T11:32:03;25.40;99.90
67379;DHT22;54262;44.642;-0.974;2023-09-12T11:34:40;25.40;99.90
67379;DHT22;54262;44.642;-0.974;2023-09-12T11:37:06;25.50;99.90
67379;DHT22;54262;44.642;-0.974;2023-09-12T11:39:34;25.50;99.90
67379;DHT22;54262;44.642;-0.974;2023-09-12T11:42:01;25.60;99.90
67379;DHT22;54262;44.642;-0.974;2023-09-12T11:44:28;25.60;99.90
67379;DHT22;54262;44.642;-0.974;2023-09-12T11:46:56;25.70;99.90
67379;DHT22;54262;44.642;-0.974;2023-09-12T11:49:35;25.70;99.90
67379;DHT22;54262;44.642;-0.974;2023-09-12T11:52:00;25.80;99.90
67379;DHT22;54262;44.642;-0.974;2023-09-12T11:54:29;25.80;99.90
67379;DHT22;54262;44.642;-0.974;2023-09-12T11:56:57;25.80;99.90
67379;DHT22;54262;44.642;-0.974;2023-09-12T11:59:28;25.80;99.90
67379;DHT22;54262;44.642;-0.974;2023-09-12T12:01:55;25.90;99.90
67379;DHT22;54262;44.642;-0.974;2023-09-12T12:04:22;26.20;99.90
67379;DHT22;54262;44.642;-0.974;2023-09-12T12:06:49;26.30;99.90
67379;DHT22;54262;44.642;-0.974;2023-09-12T12:09:18;26.50;99.90
67379;DHT22;54262;44.642;-0.974;2023-09-12T12:11:46;26.60;99.90
67379;DHT22;54262;44.642;-0.974;2023-09-12T12:14:16;26.60;99.90
67379;DHT22;54262;44.642;-0.974;2023-09-12T12:16:43;26.60;99.90
67379;DHT22;54262;44.642;-0.974;2023-09-12T12:19:10;26.50;99.90
67379;DHT22;54262;44.642;-0.974;2023-09-12T12:21:38;26.40;99.90
67379;DHT22;54262;44.642;-0.974;2023-09-12T12:24:10;26.40;99.90
67379;DHT22;54262;44.642;-0.974;2023-09-12T12:26:36;26.30;99.90
67379;DHT22;54262;44.642;-0.974;2023-09-12T12:29:05;26.30;99.90
67379;DHT22;54262;44.642;-0.974;2023-09-12T12:31:30;26.30;99.90
67379;DHT22;54262;44.642;-0.974;2023-09-12T12:33:57;26.40;99.90
67379;DHT22;54262;44.642;-0.974;2023-09-12T12:36:23;26.50;99.90
67379;DHT22;54262;44.642;-0.974;2023-09-12T12:38:50;26.70;99.90
67379;DHT22;54262;44.642;-0.974;2023-09-12T12:41:21;26.80;99.90
67379;DHT22;54262;44.642;-0.974;2023-09-12T12:43:49;26.90;99.90
67379;DHT22;54262;44.642;-0.974;2023-09-12T12:46:16;27.00;99.90
67379;DHT22;54262;44.642;-0.974;2023-09-12T12:48:45;27.00;99.90
67379;DHT22;54262;44.642;-0.974;2023-09-12T12:51:20;27.00;99.90
67379;DHT22;54262;44.642;-0.974;2023-09-12T12:53:52;27.10;99.90
67379;DHT22;54262;44.642;-0.974;2023-09-12T12:56:22;27.20;99.90
67379;DHT22;54262;44.642;-0.974;2023-09-12T12:58:56;27.30;99.90
67379;DHT22;54262;44.642;-0.974;2023-09-12T13:01:28;27.30;99.90
67379;DHT22;54262;44.642;-0.974;2023-09-12T13:03:54;27.30;99.90
67379;DHT22;54262;44.642;-0.974;2023-09-12T13:06:22;27.40;99.90
67379;DHT22;54262;44.642;-0.974;2023-09-12T13:08:49;27.40;99.90
67379;DHT22;54262;44.642;-0.974;2023-09-12T13:11:17;27.40;99.90
67379;DHT22;54262;44.642;-0.974;2023-09-12T13:13:43;27.40;99.90
67379;DHT22;54262;44.642;-0.974;2023-09-12T13:16:11;27.40;99.90
67379;DHT22;54262;44.642;-0.974;2023-09-12T13:18:38;27.50;99.90
67379;DHT22;54262;44.642;-0.974;2023-09-12T13:21:05;27.50;99.90
67379;DHT22;54262;44.642;-0.974;2023-09-12T13:23:32;27.60;99.90
67379;DHT22;54262;44.642;-0.974;2023-09-12T13:25:58;27.60;99.90
67379;DHT22;54262;44.642;-0.974;2023-09-12T13:28:24;27.70;99.90
67379;DHT22;54262;44.642;-0.974;2023-09-12T13:30:54;27.60;99.90
67379;DHT22;54262;44.642;-0.974;2023-09-12T13:33:20;27.60;99.90
67379;DHT22;54262;44.642;-0.974;2023-09-12T13:35:49;27.60;99.90
67379;DHT22;54262;44.642;-0.974;2023-09-12T13:38:16;27.60;99.90
67379;DHT22;54262;44.642;-0.974;2023-09-12T13:40:46;27.70;99.90
67379;DHT22;54262;44.642;-0.974;2023-09-12T13:43:12;27.80;99.90
67379;DHT22;54262;44.642;-0.974;2023-09-12T13:45:38;27.80;99.90
67379;DHT22;54262;44.642;-0.974;2023-09-12T13:48:05;27.90;99.90
67379;DHT22;54262;44.642;-0.974;2023-09-12T13:50:33;27.50;99.90
67379;DHT22;54262;44.642;-0.974;2023-09-12T13:53:00;27.20;99.90
67379;DHT22;54262;44.642;-0.974;2023-09-12T13:55:29;26.90;99.90
67379;DHT22;54262;44.642;-0.974;2023-09-12T13:57:55;26.80;99.90
67379;DHT22;54262;44.642;-0.974;2023-09-12T14:00:21;26.70;99.90
67379;DHT22;54262;44.642;-0.974;2023-09-12T14:02:46;26.60;99.90
67379;DHT22;54262;44.642;-0.974;2023-09-12T14:05:12;26.60;99.90
67379;DHT22;54262;44.642;-0.974;2023-09-12T14:07:38;26.50;99.90
67379;DHT22;54262;44.642;-0.974;2023-09-12T14:10:06;26.50;99.90
67379;DHT22;54262;44.642;-0.974;2023-09-12T14:12:35;26.50;99.90
67379;DHT22;54262;44.642;-0.974;2023-09-12T14:15:01;26.50;99.90
67379;DHT22;54262;44.642;-0.974;2023-09-12T14:17:28;26.50;99.90
67379;DHT22;54262;44.642;-0.974;2023-09-12T14:19:55;26.50;99.90
67379;DHT22;54262;44.642;-0.974;2023-09-12T14:22:20;26.50;99.90
67379;DHT22;54262;44.642;-0.974;2023-09-12T14:24:47;26.50;99.90
67379;DHT22;54262;44.642;-0.974;2023-09-12T14:27:15;26.50;99.90
67379;DHT22;54262;44.642;-0.974;2023-09-12T14:29:41;26.50;99.90
67379;DHT22;54262;44.642;-0.974;2023-09-12T14:32:11;26.50;99.90
67379;DHT22;54262;44.642;-0.974;2023-09-12T14:34:37;26.50;99.90
67379;DHT22;54262;44.642;-0.974;2023-09-12T14:37:02;26.50;99.90
67379;DHT22;54262;44.642;-0.974;2023-09-12T14:39:28;26.50;99.90
67379;DHT22;54262;44.642;-0.974;2023-09-12T14:41:54;26.50;99.90
67379;DHT22;54262;44.642;-0.974;2023-09-12T14:44:26;26.50;99.90
67379;DHT22;54262;44.642;-0.974;2023-09-12T14:46:53;26.50;99.90
67379;DHT22;54262;44.642;-0.974;2023-09-12T14:49:19;26.50;99.90
67379;DHT22;54262;44.642;-0.974;2023-09-12T14:51:47;26.50;99.90
67379;DHT22;54262;44.642;-0.974;2023-09-12T14:54:13;26.60;99.90
67379;DHT22;54262;44.642;-0.974;2023-09-12T14:56:38;26.60;99.90
67379;DHT22;54262;44.642;-0.974;2023-09-12T14:59:05;26.60;99.90
67379;DHT22;54262;44.642;-0.974;2023-09-12T15:01:31;26.60;99.90
67379;DHT22;54262;44.642;-0.974;2023-09-12T15:03:57;26.60;99.90
67379;DHT22;54262;44.642;-0.974;2023-09-12T15:06:26;26.60;99.90
67379;DHT22;54262;44.642;-0.974;2023-09-12T15:08:52;26.60;99.90
67379;DHT22;54262;44.642;-0.974;2023-09-12T15:11:18;26.60;99.90
67379;DHT22;54262;44.642;-0.974;2023-09-12T15:13:51;26.50;99.90
67379;DHT22;54262;44.642;-0.974;2023-09-12T15:16:16;26.50;99.90
67379;DHT22;54262;44.642;-0.974;2023-09-12T15:18:42;26.50;99.90
67379;DHT22;54262;44.642;-0.974;2023-09-12T15:21:08;26.50;99.90
67379;DHT22;54262;44.642;-0.974;2023-09-12T15:23:34;26.50;99.90
67379;DHT22;54262;44.642;-0.974;2023-09-12T15:25:59;26.40;99.90